sensor_id;sensor_type;location;lat;lon;timestamp;P1;durP1;ratioP1;P2;durP2;ratioP2
6033;SDS011;3045;43.226;27.858;2023-02-19T00:01:22;4.93;;;4.73;;
6033;SDS011;3045;43.226;27.858;2023-02-19T00:03:51;5.40;;;5.10;;
6033;SDS011;3045;43.226;27.858;2023-02-19T00:06:21;4.60;;;4.40;;
6033;SDS011;3045;43.226;27.858;2023-02-19T00:08:49;4.80;;;4.60;;
6033;SDS011;3045;43.226;27.858;2023-02-19T00:11:16;5.10;;;4.80;;
6033;SDS011;3045;43.226;27.858;2023-02-19T00:13:46;5.97;;;5.47;;
6033;SDS011;3045;43.226;27.858;2023-02-19T00:16:14;5.10;;;4.90;;
6033;SDS011;3045;43.226;27.858;2023-02-19T00:18:43;5.60;;;5.40;;
6033;SDS011;3045;43.226;27.858;2023-02-19T00:21:10;5.27;;;4.97;;
6033;SDS011;3045;43.226;27.858;2023-02-19T00:23:39;4.80;;;4.50;;
6033;SDS011;3045;43.226;27.858;2023-02-19T00:26:06;5.30;;;5.10;;
6033;SDS011;3045;43.226;27.858;2023-02-19T00:28:35;5.07;;;4.87;;
6033;SDS011;3045;43.226;27.858;2023-02-19T00:31:03;6.27;;;5.63;;
6033;SDS011;3045;43.226;27.858;2023-02-19T00:33:31;5.67;;;5.20;;
6033;SDS011;3045;43.226;27.858;2023-02-19T00:35:59;4.73;;;4.53;;
6033;SDS011;3045;43.226;27.858;2023-02-19T00:38:26;5.60;;;5.20;;
6033;SDS011;3045;43.226;27.858;2023-02-19T00:40:54;5.10;;;4.90;;
6033;SDS011;3045;43.226;27.858;2023-02-19T00:43:21;6.30;;;5.73;;
6033;SDS011;3045;43.226;27.858;2023-02-19T00:45:48;5.00;;;4.80;;
6033;SDS011;3045;43.226;27.858;2023-02-19T00:48:15;4.97;;;4.67;;
6033;SDS011;3045;43.226;27.858;2023-02-19T00:50:42;5.83;;;5.53;;
6033;SDS011;3045;43.226;27.858;2023-02-19T00:53:08;5.50;;;5.23;;
6033;SDS011;3045;43.226;27.858;2023-02-19T00:55:35;5.93;;;5.57;;
6033;SDS011;3045;43.226;27.858;2023-02-19T00:58:04;5.77;;;5.47;;
6033;SDS011;3045;43.226;27.858;2023-02-19T01:00:30;6.07;;;5.47;;
6033;SDS011;3045;43.226;27.858;2023-02-19T01:02:57;5.13;;;4.73;;
6033;SDS011;3045;43.226;27.858;2023-02-19T01:05:24;5.40;;;5.10;;
6033;SDS011;3045;43.226;27.858;2023-02-19T01:07:51;5.53;;;5.23;;
6033;SDS011;3045;43.226;27.858;2023-02-19T01:10:18;5.87;;;5.57;;
6033;SDS011;3045;43.226;27.858;2023-02-19T01:12:45;7.03;;;6.27;;
6033;SDS011;3045;43.226;27.858;2023-02-19T01:15:13;5.30;;;5.10;;
6033;SDS011;3045;43.226;27.858;2023-02-19T01:17:40;5.17;;;4.87;;
6033;SDS011;3045;43.226;27.858;2023-02-19T01:20:07;5.47;;;5.17;;
6033;SDS011;3045;43.226;27.858;2023-02-19T01:22:34;5.00;;;4.80;;
6033;SDS011;3045;43.226;27.858;2023-02-19T01:25:01;5.70;;;5.23;;
6033;SDS011;3045;43.226;27.858;2023-02-19T01:27:28;6.43;;;6.07;;
6033;SDS011;3045;43.226;27.858;2023-02-19T01:29:55;5.40;;;5.20;;
6033;SDS011;3045;43.226;27.858;2023-02-19T01:32:24;5.83;;;5.40;;
6033;SDS011;3045;43.226;27.858;2023-02-19T01:34:50;5.80;;;5.50;;
6033;SDS011;3045;43.226;27.858;2023-02-19T01:37:17;5.77;;;5.47;;
6033;SDS011;3045;43.226;27.858;2023-02-19T01:39:44;6.87;;;5.27;;
6033;SDS011;3045;43.226;27.858;2023-02-19T01:42:13;6.20;;;5.90;;
6033;SDS011;3045;43.226;27.858;2023-02-19T01:47:46;6.10;;;5.80;;
6033;SDS011;3045;43.226;27.858;2023-02-19T01:50:21;6.53;;;6.23;;
6033;SDS011;3045;43.226;27.858;2023-02-19T01:52:49;6.03;;;5.73;;
6033;SDS011;3045;43.226;27.858;2023-02-19T01:55:16;5.97;;;5.67;;
6033;SDS011;3045;43.226;27.858;2023-02-19T01:57:44;5.80;;;5.50;;
6033;SDS011;3045;43.226;27.858;2023-02-19T02:00:14;6.33;;;6.03;;
6033;SDS011;3045;43.226;27.858;2023-02-19T02:02:42;5.57;;;5.27;;
6033;SDS011;3045;43.226;27.858;2023-02-19T02:05:17;6.23;;;5.70;;
6033;SDS011;3045;43.226;27.858;2023-02-19T02:07:50;5.90;;;5.40;;
6033;SDS011;3045;43.226;27.858;2023-02-19T02:10:35;5.83;;;5.30;;
6033;SDS011;3045;43.226;27.858;2023-02-19T02:13:02;6.07;;;5.53;;
6033;SDS011;3045;43.226;27.858;2023-02-19T02:15:33;5.67;;;5.37;;
6033;SDS011;3045;43.226;27.858;2023-02-19T02:18:07;5.63;;;5.33;;
6033;SDS011;3045;43.226;27.858;2023-02-19T02:20:50;5.50;;;5.20;;
6033;SDS011;3045;43.226;27.858;2023-02-19T02:23:31;6.03;;;5.73;;
6033;SDS011;3045;43.226;27.858;2023-02-19T02:26:13;6.37;;;5.93;;
6033;SDS011;3045;43.226;27.858;2023-02-19T02:29:00;5.97;;;5.67;;
6033;SDS011;3045;43.226;27.858;2023-02-19T02:31:47;6.53;;;6.03;;
6033;SDS011;3045;43.226;27.858;2023-02-19T02:34:18;6.00;;;5.47;;
6033;SDS011;3045;43.226;27.858;2023-02-19T02:36:51;5.60;;;5.20;;
6033;SDS011;3045;43.226;27.858;2023-02-19T02:39:21;5.67;;;5.37;;
6033;SDS011;3045;43.226;27.858;2023-02-19T02:41:54;5.93;;;5.50;;
6033;SDS011;3045;43.226;27.858;2023-02-19T02:44:40;6.03;;;5.53;;
6033;SDS011;3045;43.226;27.858;2023-02-19T02:47:30;6.50;;;5.93;;
6033;SDS011;3045;43.226;27.858;2023-02-19T02:50:10;5.73;;;5.30;;
6033;SDS011;3045;43.226;27.858;2023-02-19T02:52:40;6.10;;;5.70;;
6033;SDS011;3045;43.226;27.858;2023-02-19T02:55:28;6.30;;;5.80;;
6033;SDS011;3045;43.226;27.858;2023-02-19T02:57:59;6.07;;;5.57;;
6033;SDS011;3045;43.226;27.858;2023-02-19T03:00:27;6.90;;;6.20;;
6033;SDS011;3045;43.226;27.858;2023-02-19T03:03:23;6.03;;;5.47;;
6033;SDS011;3045;43.226;27.858;2023-02-19T03:05:51;6.60;;;5.70;;
6033;SDS011;3045;43.226;27.858;2023-02-19T03:08:23;6.13;;;5.77;;
6033;SDS011;3045;43.226;27.858;2023-02-19T03:10:54;5.87;;;5.50;;
6033;SDS011;3045;43.226;27.858;2023-02-19T03:13:45;6.70;;;6.27;;
6033;SDS011;3045;43.226;27.858;2023-02-19T03:16:30;6.30;;;5.83;;
6033;SDS011;3045;43.226;27.858;2023-02-19T03:19:20;6.73;;;6.33;;
6033;SDS011;3045;43.226;27.858;2023-02-19T03:21:51;6.50;;;5.90;;
6033;SDS011;3045;43.226;27.858;2023-02-19T03:24:22;6.23;;;5.93;;
6033;SDS011;3045;43.226;27.858;2023-02-19T03:27:10;7.00;;;6.40;;
6033;SDS011;3045;43.226;27.858;2023-02-19T03:29:39;7.20;;;6.63;;
6033;SDS011;3045;43.226;27.858;2023-02-19T03:32:10;7.30;;;6.77;;
6033;SDS011;3045;43.226;27.858;2023-02-19T03:34:45;8.03;;;7.23;;
6033;SDS011;3045;43.226;27.858;2023-02-19T03:37:18;20.20;;;7.57;;
6033;SDS011;3045;43.226;27.858;2023-02-19T03:39:50;8.40;;;7.60;;
6033;SDS011;3045;43.226;27.858;2023-02-19T03:42:24;7.90;;;7.20;;
6033;SDS011;3045;43.226;27.858;2023-02-19T03:47:53;11.00;;;7.20;;
6033;SDS011;3045;43.226;27.858;2023-02-19T03:50:29;7.37;;;6.77;;
6033;SDS011;3045;43.226;27.858;2023-02-19T03:53:08;7.43;;;7.03;;
6033;SDS011;3045;43.226;27.858;2023-02-19T03:55:42;7.83;;;7.07;;
6033;SDS011;3045;43.226;27.858;2023-02-19T03:58:15;8.50;;;7.50;;
6033;SDS011;3045;43.226;27.858;2023-02-19T04:00:52;8.03;;;7.30;;
6033;SDS011;3045;43.226;27.858;2023-02-19T04:03:24;7.83;;;7.33;;
6033;SDS011;3045;43.226;27.858;2023-02-19T04:05:59;7.57;;;7.00;;
6033;SDS011;3045;43.226;27.858;2023-02-19T04:08:28;7.77;;;7.17;;
6033;SDS011;3045;43.226;27.858;2023-02-19T04:10:58;8.50;;;7.60;;
6033;SDS011;3045;43.226;27.858;2023-02-19T04:13:28;6.93;;;6.43;;
6033;SDS011;3045;43.226;27.858;2023-02-19T04:16:00;11.57;;;7.40;;
6033;SDS011;3045;43.226;27.858;2023-02-19T04:18:32;7.33;;;6.83;;
6033;SDS011;3045;43.226;27.858;2023-02-19T04:21:05;6.17;;;5.87;;
6033;SDS011;3045;43.226;27.858;2023-02-19T04:23:34;7.57;;;6.97;;
6033;SDS011;3045;43.226;27.858;2023-02-19T04:26:04;7.37;;;6.77;;
6033;SDS011;3045;43.226;27.858;2023-02-19T04:28:32;6.73;;;6.33;;
6033;SDS011;3045;43.226;27.858;2023-02-19T04:30:59;7.40;;;6.77;;
6033;SDS011;3045;43.226;27.858;2023-02-19T04:33:26;5.70;;;5.40;;
6033;SDS011;3045;43.226;27.858;2023-02-19T04:35:53;6.40;;;6.00;;
6033;SDS011;3045;43.226;27.858;2023-02-19T04:38:21;6.33;;;6.00;;
6033;SDS011;3045;43.226;27.858;2023-02-19T04:40:48;6.00;;;5.70;;
6033;SDS011;3045;43.226;27.858;2023-02-19T04:43:16;6.83;;;6.23;;
6033;SDS011;3045;43.226;27.858;2023-02-19T04:45:43;5.73;;;5.40;;
6033;SDS011;3045;43.226;27.858;2023-02-19T04:48:10;6.40;;;5.83;;
6033;SDS011;3045;43.226;27.858;2023-02-19T04:50:37;6.93;;;6.43;;
6033;SDS011;3045;43.226;27.858;2023-02-19T04:53:04;7.63;;;5.63;;
6033;SDS011;3045;43.226;27.858;2023-02-19T04:55:34;7.47;;;5.87;;
6033;SDS011;3045;43.226;27.858;2023-02-19T04:58:02;6.47;;;5.80;;
6033;SDS011;3045;43.226;27.858;2023-02-19T05:00:29;5.70;;;5.37;;
6033;SDS011;3045;43.226;27.858;2023-02-19T05:02:58;5.73;;;5.20;;
6033;SDS011;3045;43.226;27.858;2023-02-19T05:05:24;5.83;;;5.53;;
6033;SDS011;3045;43.226;27.858;2023-02-19T05:07:51;5.50;;;5.20;;
6033;SDS011;3045;43.226;27.858;2023-02-19T05:10:18;8.30;;;5.60;;
6033;SDS011;3045;43.226;27.858;2023-02-19T05:12:47;5.43;;;5.20;;
6033;SDS011;3045;43.226;27.858;2023-02-19T05:15:13;10.17;;;5.60;;
6033;SDS011;3045;43.226;27.858;2023-02-19T05:17:40;6.60;;;6.00;;
6033;SDS011;3045;43.226;27.858;2023-02-19T05:20:07;8.30;;;6.00;;
6033;SDS011;3045;43.226;27.858;2023-02-19T05:22:35;6.80;;;6.20;;
6033;SDS011;3045;43.226;27.858;2023-02-19T05:25:01;6.60;;;6.00;;
6033;SDS011;3045;43.226;27.858;2023-02-19T05:27:29;6.00;;;5.53;;
6033;SDS011;3045;43.226;27.858;2023-02-19T05:29:57;6.93;;;6.53;;
6033;SDS011;3045;43.226;27.858;2023-02-19T05:32:24;9.30;;;6.00;;
6033;SDS011;3045;43.226;27.858;2023-02-19T05:34:51;6.60;;;6.00;;
6033;SDS011;3045;43.226;27.858;2023-02-19T05:37:18;6.03;;;5.50;;
6033;SDS011;3045;43.226;27.858;2023-02-19T05:39:45;5.83;;;5.33;;
6033;SDS011;3045;43.226;27.858;2023-02-19T05:42:13;7.47;;;5.43;;
6033;SDS011;3045;43.226;27.858;2023-02-19T05:44:40;5.73;;;5.50;;
6033;SDS011;3045;43.226;27.858;2023-02-19T05:47:08;6.53;;;5.63;;
6033;SDS011;3045;43.226;27.858;2023-02-19T05:49:36;5.40;;;5.10;;
6033;SDS011;3045;43.226;27.858;2023-02-19T05:52:03;5.70;;;5.13;;
6033;SDS011;3045;43.226;27.858;2023-02-19T05:54:30;4.83;;;4.53;;
6033;SDS011;3045;43.226;27.858;2023-02-19T05:56:57;5.27;;;4.87;;
6033;SDS011;3045;43.226;27.858;2023-02-19T05:59:24;5.30;;;5.00;;
6033;SDS011;3045;43.226;27.858;2023-02-19T06:01:52;5.70;;;5.50;;
6033;SDS011;3045;43.226;27.858;2023-02-19T06:04:21;6.20;;;5.60;;
6033;SDS011;3045;43.226;27.858;2023-02-19T06:06:48;5.80;;;5.50;;
6033;SDS011;3045;43.226;27.858;2023-02-19T06:09:15;7.20;;;6.00;;
6033;SDS011;3045;43.226;27.858;2023-02-19T06:11:42;6.23;;;5.80;;
6033;SDS011;3045;43.226;27.858;2023-02-19T06:14:09;5.97;;;5.50;;
6033;SDS011;3045;43.226;27.858;2023-02-19T06:16:37;8.03;;;5.97;;
6033;SDS011;3045;43.226;27.858;2023-02-19T06:19:04;5.67;;;5.27;;
6033;SDS011;3045;43.226;27.858;2023-02-19T06:21:33;6.67;;;6.20;;
6033;SDS011;3045;43.226;27.858;2023-02-19T06:24:03;5.87;;;5.57;;
6033;SDS011;3045;43.226;27.858;2023-02-19T06:26:31;5.40;;;5.20;;
6033;SDS011;3045;43.226;27.858;2023-02-19T06:28:58;7.27;;;6.00;;
6033;SDS011;3045;43.226;27.858;2023-02-19T06:31:25;6.63;;;6.23;;
6033;SDS011;3045;43.226;27.858;2023-02-19T06:33:51;6.00;;;5.70;;
6033;SDS011;3045;43.226;27.858;2023-02-19T06:36:19;6.20;;;5.87;;
6033;SDS011;3045;43.226;27.858;2023-02-19T06:38:48;6.90;;;6.40;;
6033;SDS011;3045;43.226;27.858;2023-02-19T06:41:15;7.43;;;6.73;;
6033;SDS011;3045;43.226;27.858;2023-02-19T06:43:42;6.50;;;6.07;;
6033;SDS011;3045;43.226;27.858;2023-02-19T06:46:11;6.97;;;6.30;;
6033;SDS011;3045;43.226;27.858;2023-02-19T06:48:41;7.23;;;6.40;;
6033;SDS011;3045;43.226;27.858;2023-02-19T06:51:11;6.63;;;6.23;;
6033;SDS011;3045;43.226;27.858;2023-02-19T06:53:39;7.47;;;7.07;;
6033;SDS011;3045;43.226;27.858;2023-02-19T06:56:20;7.50;;;6.80;;
6033;SDS011;3045;43.226;27.858;2023-02-19T06:58:48;11.40;;;6.87;;
6033;SDS011;3045;43.226;27.858;2023-02-19T07:01:15;8.27;;;7.67;;
6033;SDS011;3045;43.226;27.858;2023-02-19T07:03:42;9.40;;;7.73;;
6033;SDS011;3045;43.226;27.858;2023-02-19T07:06:09;8.80;;;7.90;;
6033;SDS011;3045;43.226;27.858;2023-02-19T07:08:36;8.27;;;7.77;;
6033;SDS011;3045;43.226;27.858;2023-02-19T07:11:03;8.57;;;7.87;;
6033;SDS011;3045;43.226;27.858;2023-02-19T07:13:31;8.53;;;7.93;;
6033;SDS011;3045;43.226;27.858;2023-02-19T07:15:59;8.77;;;7.83;;
6033;SDS011;3045;43.226;27.858;2023-02-19T07:18:29;8.13;;;7.63;;
6033;SDS011;3045;43.226;27.858;2023-02-19T07:21:00;9.03;;;8.33;;
6033;SDS011;3045;43.226;27.858;2023-02-19T07:23:28;9.00;;;8.50;;
6033;SDS011;3045;43.226;27.858;2023-02-19T07:25:55;13.77;;;12.57;;
6033;SDS011;3045;43.226;27.858;2023-02-19T07:28:21;15.57;;;13.87;;
6033;SDS011;3045;43.226;27.858;2023-02-19T07:30:50;9.80;;;9.10;;
6033;SDS011;3045;43.226;27.858;2023-02-19T07:33:17;8.10;;;7.53;;
6033;SDS011;3045;43.226;27.858;2023-02-19T07:35:44;8.13;;;7.37;;
6033;SDS011;3045;43.226;27.858;2023-02-19T07:38:15;8.37;;;7.20;;
6033;SDS011;3045;43.226;27.858;2023-02-19T07:40:49;11.23;;;8.37;;
6033;SDS011;3045;43.226;27.858;2023-02-19T07:43:16;13.50;;;8.03;;
6033;SDS011;3045;43.226;27.858;2023-02-19T07:45:43;21.17;;;8.93;;
6033;SDS011;3045;43.226;27.858;2023-02-19T07:48:12;16.10;;;8.27;;
6033;SDS011;3045;43.226;27.858;2023-02-19T07:50:38;8.67;;;8.27;;
6033;SDS011;3045;43.226;27.858;2023-02-19T07:53:05;8.73;;;8.13;;
6033;SDS011;3045;43.226;27.858;2023-02-19T07:55:33;8.57;;;7.77;;
6033;SDS011;3045;43.226;27.858;2023-02-19T07:58:00;7.93;;;7.47;;
6033;SDS011;3045;43.226;27.858;2023-02-19T08:00:27;8.67;;;7.20;;
6033;SDS011;3045;43.226;27.858;2023-02-19T08:02:53;8.27;;;7.77;;
6033;SDS011;3045;43.226;27.858;2023-02-19T08:05:27;7.87;;;7.20;;
6033;SDS011;3045;43.226;27.858;2023-02-19T08:07:54;7.38;;;6.90;;
6033;SDS011;3045;43.226;27.858;2023-02-19T08:10:21;7.47;;;7.05;;
6033;SDS011;3045;43.226;27.858;2023-02-19T08:13:07;7.43;;;7.13;;
6033;SDS011;3045;43.226;27.858;2023-02-19T08:15:48;7.95;;;7.05;;
6033;SDS011;3045;43.226;27.858;2023-02-19T08:18:15;7.50;;;7.20;;
6033;SDS011;3045;43.226;27.858;2023-02-19T08:20:47;7.82;;;7.18;;
6033;SDS011;3045;43.226;27.858;2023-02-19T08:23:14;7.13;;;6.82;;
6033;SDS011;3045;43.226;27.858;2023-02-19T08:25:41;7.93;;;7.43;;
6033;SDS011;3045;43.226;27.858;2023-02-19T08:28:10;7.05;;;6.55;;
6033;SDS011;3045;43.226;27.858;2023-02-19T08:30:38;10.30;;;7.65;;
6033;SDS011;3045;43.226;27.858;2023-02-19T08:33:09;10.40;;;7.88;;
6033;SDS011;3045;43.226;27.858;2023-02-19T08:35:37;9.23;;;7.65;;
6033;SDS011;3045;43.226;27.858;2023-02-19T08:38:07;8.05;;;7.32;;
6033;SDS011;3045;43.226;27.858;2023-02-19T08:40:35;8.35;;;7.95;;
6033;SDS011;3045;43.226;27.858;2023-02-19T08:43:03;7.82;;;7.35;;
6033;SDS011;3045;43.226;27.858;2023-02-19T08:45:30;7.55;;;7.20;;
6033;SDS011;3045;43.226;27.858;2023-02-19T08:47:57;8.52;;;7.93;;
6033;SDS011;3045;43.226;27.858;2023-02-19T08:50:24;7.70;;;7.30;;
6033;SDS011;3045;43.226;27.858;2023-02-19T08:52:52;8.43;;;7.63;;
6033;SDS011;3045;43.226;27.858;2023-02-19T08:55:20;7.82;;;7.35;;
6033;SDS011;3045;43.226;27.858;2023-02-19T08:57:47;8.05;;;7.60;;
6033;SDS011;3045;43.226;27.858;2023-02-19T09:00:14;7.38;;;6.88;;
6033;SDS011;3045;43.226;27.858;2023-02-19T09:02:41;7.32;;;7.00;;
6033;SDS011;3045;43.226;27.858;2023-02-19T09:05:09;7.00;;;6.60;;
6033;SDS011;3045;43.226;27.858;2023-02-19T09:07:36;11.68;;;7.35;;
6033;SDS011;3045;43.226;27.858;2023-02-19T09:10:03;7.40;;;6.82;;
6033;SDS011;3045;43.226;27.858;2023-02-19T09:12:32;7.38;;;7.07;;
6033;SDS011;3045;43.226;27.858;2023-02-19T09:14:59;6.93;;;6.63;;
6033;SDS011;3045;43.226;27.858;2023-02-19T09:17:26;7.05;;;6.68;;
6033;SDS011;3045;43.226;27.858;2023-02-19T09:19:53;6.68;;;6.38;;
6033;SDS011;3045;43.226;27.858;2023-02-19T09:22:19;7.25;;;6.95;;
6033;SDS011;3045;43.226;27.858;2023-02-19T09:24:46;7.20;;;6.70;;
6033;SDS011;3045;43.226;27.858;2023-02-19T09:27:14;7.07;;;6.78;;
6033;SDS011;3045;43.226;27.858;2023-02-19T09:29:43;7.82;;;6.85;;
6033;SDS011;3045;43.226;27.858;2023-02-19T09:32:11;6.72;;;6.53;;
6033;SDS011;3045;43.226;27.858;2023-02-19T09:34:38;6.88;;;6.47;;
6033;SDS011;3045;43.226;27.858;2023-02-19T09:37:05;6.85;;;6.43;;
6033;SDS011;3045;43.226;27.858;2023-02-19T09:39:33;7.25;;;6.75;;
6033;SDS011;3045;43.226;27.858;2023-02-19T09:42:01;6.80;;;6.32;;
6033;SDS011;3045;43.226;27.858;2023-02-19T09:44:36;6.32;;;6.03;;
6033;SDS011;3045;43.226;27.858;2023-02-19T09:47:08;6.53;;;6.10;;
6033;SDS011;3045;43.226;27.858;2023-02-19T09:49:42;6.78;;;6.30;;
6033;SDS011;3045;43.226;27.858;2023-02-19T09:52:16;6.57;;;6.28;;
6033;SDS011;3045;43.226;27.858;2023-02-19T09:54:49;7.63;;;6.63;;
6033;SDS011;3045;43.226;27.858;2023-02-19T09:57:21;6.38;;;5.95;;
6033;SDS011;3045;43.226;27.858;2023-02-19T09:59:50;6.70;;;6.30;;
6033;SDS011;3045;43.226;27.858;2023-02-19T10:02:25;7.38;;;6.75;;
6033;SDS011;3045;43.226;27.858;2023-02-19T10:04:54;6.50;;;6.10;;
6033;SDS011;3045;43.226;27.858;2023-02-19T10:07:23;8.25;;;6.35;;
6033;SDS011;3045;43.226;27.858;2023-02-19T10:09:57;6.57;;;6.25;;
6033;SDS011;3045;43.226;27.858;2023-02-19T10:12:28;6.40;;;5.63;;
6033;SDS011;3045;43.226;27.858;2023-02-19T10:14:58;6.10;;;5.80;;
6033;SDS011;3045;43.226;27.858;2023-02-19T10:17:32;5.68;;;5.35;;
6033;SDS011;3045;43.226;27.858;2023-02-19T10:20:01;6.22;;;5.93;;
6033;SDS011;3045;43.226;27.858;2023-02-19T10:22:29;6.22;;;6.03;;
6033;SDS011;3045;43.226;27.858;2023-02-19T10:24:57;6.03;;;5.82;;
6033;SDS011;3045;43.226;27.858;2023-02-19T10:27:25;6.20;;;5.80;;
6033;SDS011;3045;43.226;27.858;2023-02-19T10:29:55;6.20;;;6.00;;
6033;SDS011;3045;43.226;27.858;2023-02-19T10:32:24;6.68;;;5.35;;
6033;SDS011;3045;43.226;27.858;2023-02-19T10:37:41;6.07;;;5.68;;
6033;SDS011;3045;43.226;27.858;2023-02-19T10:40:16;5.13;;;4.93;;
6033;SDS011;3045;43.226;27.858;2023-02-19T10:42:45;5.88;;;5.32;;
6033;SDS011;3045;43.226;27.858;2023-02-19T10:45:16;5.68;;;5.38;;
6033;SDS011;3045;43.226;27.858;2023-02-19T10:47:46;5.53;;;5.15;;
6033;SDS011;3045;43.226;27.858;2023-02-19T10:50:22;5.18;;;4.97;;
6033;SDS011;3045;43.226;27.858;2023-02-19T10:52:53;5.47;;;5.18;;
6033;SDS011;3045;43.226;27.858;2023-02-19T10:55:26;5.95;;;5.40;;
6033;SDS011;3045;43.226;27.858;2023-02-19T10:57:56;5.57;;;5.18;;
6033;SDS011;3045;43.226;27.858;2023-02-19T11:00:24;6.97;;;5.22;;
6033;SDS011;3045;43.226;27.858;2023-02-19T11:03:13;5.40;;;5.10;;
6033;SDS011;3045;43.226;27.858;2023-02-19T11:05:51;4.90;;;4.70;;
6033;SDS011;3045;43.226;27.858;2023-02-19T11:08:25;5.40;;;5.03;;
6033;SDS011;3045;43.226;27.858;2023-02-19T11:10:52;5.20;;;5.00;;
6033;SDS011;3045;43.226;27.858;2023-02-19T11:13:20;5.03;;;4.82;;
6033;SDS011;3045;43.226;27.858;2023-02-19T11:15:55;5.07;;;4.68;;
6033;SDS011;3045;43.226;27.858;2023-02-19T11:18:23;5.47;;;5.13;;
6033;SDS011;3045;43.226;27.858;2023-02-19T11:20:54;5.72;;;5.53;;
6033;SDS011;3045;43.226;27.858;2023-02-19T11:23:24;5.90;;;5.50;;
6033;SDS011;3045;43.226;27.858;2023-02-19T11:25:54;6.22;;;5.50;;
6033;SDS011;3045;43.226;27.858;2023-02-19T11:28:27;5.75;;;5.45;;
6033;SDS011;3045;43.226;27.858;2023-02-19T11:31:11;5.25;;;4.80;;
6033;SDS011;3045;43.226;27.858;2023-02-19T11:33:43;4.75;;;4.45;;
6033;SDS011;3045;43.226;27.858;2023-02-19T11:36:22;6.72;;;5.38;;
6033;SDS011;3045;43.226;27.858;2023-02-19T11:38:54;4.93;;;4.72;;
6033;SDS011;3045;43.226;27.858;2023-02-19T11:41:26;7.57;;;5.35;;
6033;SDS011;3045;43.226;27.858;2023-02-19T11:44:11;5.90;;;5.13;;
6033;SDS011;3045;43.226;27.858;2023-02-19T11:46:52;5.88;;;5.68;;
6033;SDS011;3045;43.226;27.858;2023-02-19T11:49:28;5.50;;;5.25;;
6033;SDS011;3045;43.226;27.858;2023-02-19T11:52:18;5.40;;;5.00;;
6033;SDS011;3045;43.226;27.858;2023-02-19T11:54:57;4.97;;;4.78;;
6033;SDS011;3045;43.226;27.858;2023-02-19T11:57:36;5.13;;;4.93;;
6033;SDS011;3045;43.226;27.858;2023-02-19T12:00:17;5.45;;;5.03;;
6033;SDS011;3045;43.226;27.858;2023-02-19T12:02:53;5.00;;;4.68;;
6033;SDS011;3045;43.226;27.858;2023-02-19T12:05:39;5.40;;;4.55;;
6033;SDS011;3045;43.226;27.858;2023-02-19T12:08:35;4.90;;;4.70;;
6033;SDS011;3045;43.226;27.858;2023-02-19T12:11:26;4.68;;;4.28;;
6033;SDS011;3045;43.226;27.858;2023-02-19T12:14:11;4.93;;;3.75;;
6033;SDS011;3045;43.226;27.858;2023-02-19T12:17:04;4.80;;;3.95;;
6033;SDS011;3045;43.226;27.858;2023-02-19T12:19:51;4.78;;;4.53;;
6033;SDS011;3045;43.226;27.858;2023-02-19T12:22:29;11.38;;;4.43;;
6033;SDS011;3045;43.226;27.858;2023-02-19T12:25:06;4.38;;;4.18;;
6033;SDS011;3045;43.226;27.858;2023-02-19T12:27:48;5.07;;;4.60;;
6033;SDS011;3045;43.226;27.858;2023-02-19T12:30:39;7.32;;;4.60;;
6033;SDS011;3045;43.226;27.858;2023-02-19T12:36:42;5.10;;;4.65;;
6033;SDS011;3045;43.226;27.858;2023-02-19T12:39:23;4.83;;;4.30;;
6033;SDS011;3045;43.226;27.858;2023-02-19T12:42:01;4.57;;;4.17;;
6033;SDS011;3045;43.226;27.858;2023-02-19T12:44:36;8.85;;;3.95;;
6033;SDS011;3045;43.226;27.858;2023-02-19T12:47:07;3.97;;;3.67;;
6033;SDS011;3045;43.226;27.858;2023-02-19T12:49:45;4.87;;;3.60;;
6033;SDS011;3045;43.226;27.858;2023-02-19T12:52:19;3.70;;;3.60;;
6033;SDS011;3045;43.226;27.858;2023-02-19T12:54:49;4.20;;;3.77;;
6033;SDS011;3045;43.226;27.858;2023-02-19T12:57:21;3.80;;;3.70;;
6033;SDS011;3045;43.226;27.858;2023-02-19T12:59:52;3.60;;;3.30;;
6033;SDS011;3045;43.226;27.858;2023-02-19T13:02:26;4.40;;;4.03;;
6033;SDS011;3045;43.226;27.858;2023-02-19T13:05:00;4.00;;;3.80;;
6033;SDS011;3045;43.226;27.858;2023-02-19T13:07:32;3.67;;;3.47;;
6033;SDS011;3045;43.226;27.858;2023-02-19T13:10:11;3.77;;;3.57;;
6033;SDS011;3045;43.226;27.858;2023-02-19T13:12:47;3.55;;;3.08;;
6033;SDS011;3045;43.226;27.858;2023-02-19T13:15:17;3.15;;;2.95;;
6033;SDS011;3045;43.226;27.858;2023-02-19T13:17:50;3.73;;;3.43;;
6033;SDS011;3045;43.226;27.858;2023-02-19T13:20:22;6.47;;;3.67;;
6033;SDS011;3045;43.226;27.858;2023-02-19T13:22:54;3.43;;;3.23;;
6033;SDS011;3045;43.226;27.858;2023-02-19T13:25:47;3.30;;;2.80;;
6033;SDS011;3045;43.226;27.858;2023-02-19T13:28:32;2.93;;;2.60;;
6033;SDS011;3045;43.226;27.858;2023-02-19T13:34:21;2.50;;;2.30;;
6033;SDS011;3045;43.226;27.858;2023-02-19T13:36:58;2.73;;;2.53;;
6033;SDS011;3045;43.226;27.858;2023-02-19T13:39:26;2.77;;;2.57;;
6033;SDS011;3045;43.226;27.858;2023-02-19T13:41:54;2.78;;;2.58;;
6033;SDS011;3045;43.226;27.858;2023-02-19T13:44:25;4.03;;;3.07;;
6033;SDS011;3045;43.226;27.858;2023-02-19T13:46:54;7.53;;;3.07;;
6033;SDS011;3045;43.226;27.858;2023-02-19T14:01:02;3.60;;;3.50;;
6033;SDS011;3045;43.226;27.858;2023-02-19T14:03:38;3.70;;;3.60;;
6033;SDS011;3045;43.226;27.858;2023-02-19T14:06:11;3.50;;;3.40;;
6033;SDS011;3045;43.226;27.858;2023-02-19T14:08:45;3.67;;;3.33;;
6033;SDS011;3045;43.226;27.858;2023-02-19T14:11:13;4.53;;;4.33;;
6033;SDS011;3045;43.226;27.858;2023-02-19T14:16:51;3.67;;;3.33;;
6033;SDS011;3045;43.226;27.858;2023-02-19T14:25:34;3.00;;;2.80;;
6033;SDS011;3045;43.226;27.858;2023-02-19T14:28:12;2.90;;;2.70;;
6033;SDS011;3045;43.226;27.858;2023-02-19T14:30:47;3.10;;;3.00;;
6033;SDS011;3045;43.226;27.858;2023-02-19T14:33:18;3.70;;;3.40;;
6033;SDS011;3045;43.226;27.858;2023-02-19T14:35:48;4.23;;;3.33;;
6033;SDS011;3045;43.226;27.858;2023-02-19T14:38:20;2.60;;;2.50;;
6033;SDS011;3045;43.226;27.858;2023-02-19T14:40:50;2.30;;;2.20;;
6033;SDS011;3045;43.226;27.858;2023-02-19T14:43:18;2.70;;;2.13;;
6033;SDS011;3045;43.226;27.858;2023-02-19T14:45:49;3.40;;;2.33;;
6033;SDS011;3045;43.226;27.858;2023-02-19T14:48:21;2.30;;;2.20;;
6033;SDS011;3045;43.226;27.858;2023-02-19T14:50:53;2.40;;;2.20;;
6033;SDS011;3045;43.226;27.858;2023-02-19T14:53:23;2.47;;;2.37;;
6033;SDS011;3045;43.226;27.858;2023-02-19T14:55:52;2.60;;;2.10;;
6033;SDS011;3045;43.226;27.858;2023-02-19T14:58:21;1.90;;;1.80;;
6033;SDS011;3045;43.226;27.858;2023-02-19T15:00:51;2.33;;;2.13;;
6033;SDS011;3045;43.226;27.858;2023-02-19T15:03:32;1.90;;;1.80;;
6033;SDS011;3045;43.226;27.858;2023-02-19T15:06:02;2.20;;;2.00;;
6033;SDS011;3045;43.226;27.858;2023-02-19T15:08:33;2.37;;;2.27;;
6033;SDS011;3045;43.226;27.858;2023-02-19T15:11:03;5.13;;;2.20;;
6033;SDS011;3045;43.226;27.858;2023-02-19T15:13:35;2.20;;;2.10;;
6033;SDS011;3045;43.226;27.858;2023-02-19T15:16:02;2.40;;;2.30;;
6033;SDS011;3045;43.226;27.858;2023-02-19T15:18:30;3.63;;;2.20;;
6033;SDS011;3045;43.226;27.858;2023-02-19T15:21:01;2.60;;;2.40;;
6033;SDS011;3045;43.226;27.858;2023-02-19T15:23:30;2.80;;;2.60;;
6033;SDS011;3045;43.226;27.858;2023-02-19T15:26:00;2.70;;;2.60;;
6033;SDS011;3045;43.226;27.858;2023-02-19T15:28:32;2.80;;;2.60;;
6033;SDS011;3045;43.226;27.858;2023-02-19T15:31:03;3.17;;;2.63;;
6033;SDS011;3045;43.226;27.858;2023-02-19T15:33:39;2.80;;;2.60;;
6033;SDS011;3045;43.226;27.858;2023-02-19T15:36:13;3.13;;;2.83;;
6033;SDS011;3045;43.226;27.858;2023-02-19T15:38:50;2.40;;;2.30;;
6033;SDS011;3045;43.226;27.858;2023-02-19T15:41:19;2.63;;;2.43;;
6033;SDS011;3045;43.226;27.858;2023-02-19T15:43:48;2.07;;;1.97;;
6033;SDS011;3045;43.226;27.858;2023-02-19T15:46:19;2.70;;;2.10;;
6033;SDS011;3045;43.226;27.858;2023-02-19T15:48:51;2.17;;;1.93;;
6033;SDS011;3045;43.226;27.858;2023-02-19T15:51:24;2.43;;;2.20;;
6033;SDS011;3045;43.226;27.858;2023-02-19T15:53:54;2.13;;;2.03;;
6033;SDS011;3045;43.226;27.858;2023-02-19T15:56:25;3.40;;;2.10;;
6033;SDS011;3045;43.226;27.858;2023-02-19T15:58:55;4.93;;;2.00;;
6033;SDS011;3045;43.226;27.858;2023-02-19T16:01:26;3.50;;;2.17;;